createdAt,value
2022-12-13T00:01:57.954Z,-2.48
2022-12-13T00:04:27.135Z,-2.50
2022-12-13T00:06:54.904Z,-2.65
2022-12-13T00:09:23.756Z,-2.54
2022-12-13T00:11:52.349Z,-2.51
2022-12-13T00:14:20.153Z,-2.51
2022-12-13T00:16:50.701Z,-2.45
2022-12-13T00:19:19.745Z,-2.58
2022-12-13T00:21:49.091Z,-2.59
2022-12-13T00:24:16.917Z,-2.46
2022-12-13T00:26:46.438Z,-2.59
2022-12-13T00:29:15.201Z,-2.56
2022-12-13T00:31:59.416Z,-2.58
2022-12-13T00:34:29.664Z,-2.60
2022-12-13T00:36:59.565Z,-2.39
2022-12-13T00:39:28.236Z,-2.46
2022-12-13T00:41:56.500Z,-2.46
2022-12-13T00:44:24.676Z,-2.42
2022-12-13T00:46:54.743Z,-2.59
2022-12-13T00:49:23.899Z,-2.56
2022-12-13T00:51:52.683Z,-2.55
2022-12-13T00:54:21.427Z,-2.62
2022-12-13T00:56:51.710Z,-2.52
2022-12-13T00:59:20.625Z,-2.59
2022-12-13T01:01:49.635Z,-2.72
2022-12-13T01:04:18.369Z,-2.79
2022-12-13T01:06:50.154Z,-2.64
2022-12-13T01:09:29.988Z,-2.56
2022-12-13T01:12:05.962Z,-2.57
2022-12-13T01:14:38.166Z,-2.60
2022-12-13T01:17:08.213Z,-2.78
2022-12-13T01:19:37.700Z,-2.68
2022-12-13T01:22:07.967Z,-2.66
2022-12-13T01:24:36.973Z,-2.75
2022-12-13T01:27:05.802Z,-2.68
2022-12-13T01:29:34.507Z,-2.78
2022-12-13T01:32:03.198Z,-2.68
2022-12-13T01:34:31.014Z,-2.67
2022-12-13T01:36:59.034Z,-2.76
2022-12-13T01:39:28.865Z,-2.83
2022-12-13T01:41:59.994Z,-2.80
2022-12-13T01:44:56.518Z,-2.82
2022-12-13T01:47:49.599Z,-2.82
2022-12-13T01:50:33.263Z,-2.78
2022-12-13T01:53:03.282Z,-2.70
2022-12-13T01:55:41.551Z,-2.78
2022-12-13T01:58:09.706Z,-2.86
2022-12-13T02:00:40.887Z,-2.93
2022-12-13T02:03:21.459Z,-2.91
2022-12-13T02:06:09.671Z,-3.09
2022-12-13T02:08:39.853Z,-2.92
2022-12-13T02:11:08.349Z,-2.87
2022-12-13T02:13:38.900Z,-2.99
2022-12-13T02:16:35.982Z,-3.01
2022-12-13T02:20:00.615Z,-3.01
2022-12-13T02:23:09.923Z,-3.14
2022-12-13T02:26:40.787Z,-3.14
2022-12-13T02:29:49.429Z,-3.15
2022-12-13T02:32:38.055Z,-2.95
2022-12-13T02:35:11.482Z,-3.16
2022-12-13T02:38:14.333Z,-3.17
2022-12-13T02:41:27.834Z,-3.13
2022-12-13T02:44:21.807Z,-2.96
2022-12-13T02:47:39.829Z,-3.05
2022-12-13T02:50:11.364Z,-3.03
2022-12-13T02:52:43.102Z,-3.06
2022-12-13T02:55:16.493Z,-3.17
2022-12-13T02:57:48.665Z,-2.95
2022-12-13T03:00:23.860Z,-3.04
2022-12-13T03:03:24.241Z,-3.15
2022-12-13T03:06:33.696Z,-3.02
2022-12-13T03:09:49.118Z,-3.13
2022-12-13T03:13:07.182Z,-3.04
2022-12-13T03:15:57.025Z,-3.02
2022-12-13T03:18:30.869Z,-3.22
2022-12-13T03:21:07.124Z,-3.16
2022-12-13T03:23:38.176Z,-3.19
2022-12-13T03:26:24.934Z,-3.23
2022-12-13T03:29:03.130Z,-3.21
2022-12-13T03:31:56.618Z,-3.16
2022-12-13T03:34:25.417Z,-3.15
2022-12-13T03:37:11.728Z,-3.16
2022-12-13T03:39:40.522Z,-3.15
2022-12-13T03:42:09.503Z,-2.94
2022-12-13T03:44:38.201Z,-3.07
2022-12-13T03:47:06.919Z,-3.05
2022-12-13T03:49:35.872Z,-2.96
2022-12-13T03:52:03.907Z,-3.03
2022-12-13T03:54:33.420Z,-3.17
2022-12-13T03:57:02.015Z,-3.32
2022-12-13T03:59:29.876Z,-3.25
2022-12-13T04:01:58.569Z,-3.22
2022-12-13T04:04:27.255Z,-3.35
2022-12-13T04:06:55.980Z,-3.39
2022-12-13T04:09:24.745Z,-3.27
2022-12-13T04:12:11.134Z,-3.31
2022-12-13T04:14:38.890Z,-3.31
2022-12-13T04:17:07.621Z,-3.29
2022-12-13T04:19:37.071Z,-3.22
2022-12-13T04:22:05.829Z,-3.28
2022-12-13T04:24:34.594Z,-3.19
2022-12-13T04:27:02.903Z,-3.29
2022-12-13T04:29:33.719Z,-3.17
2022-12-13T04:32:05.076Z,-3.35
2022-12-13T04:34:37.538Z,-3.41
2022-12-13T04:37:06.335Z,-3.39
2022-12-13T04:39:35.508Z,-3.51
2022-12-13T04:42:03.504Z,-3.41
2022-12-13T04:44:36.819Z,-3.38
2022-12-13T04:47:05.549Z,-3.36
2022-12-13T04:49:35.271Z,-3.19
2022-12-13T04:52:03.402Z,-3.30
2022-12-13T04:54:36.063Z,-3.33
2022-12-13T04:57:11.790Z,-3.27
2022-12-13T04:59:40.837Z,-3.48
2022-12-13T05:02:11.257Z,-3.53
2022-12-13T05:04:40.075Z,-3.46
2022-12-13T05:07:07.939Z,-3.44
2022-12-13T05:09:36.730Z,-3.52
2022-12-13T05:12:22.014Z,-3.52
2022-12-13T05:14:54.046Z,-3.66
2022-12-13T05:17:23.178Z,-3.75
2022-12-13T05:19:52.720Z,-3.58
2022-12-13T05:22:21.498Z,-3.51
2022-12-13T05:24:50.609Z,-3.54
2022-12-13T05:27:25.612Z,-3.60
2022-12-13T05:30:02.771Z,-3.64
2022-12-13T05:32:43.348Z,-3.60
2022-12-13T05:35:22.262Z,-3.76
2022-12-13T05:37:53.772Z,-3.83
2022-12-13T05:40:27.761Z,-3.65
2022-12-13T05:43:01.674Z,-3.72
2022-12-13T05:45:33.745Z,-3.74
2022-12-13T05:48:02.569Z,-3.67
2022-12-13T05:50:31.411Z,-3.56
2022-12-13T05:53:00.216Z,-3.60
2022-12-13T05:55:28.933Z,-3.70
2022-12-13T05:58:02.432Z,-3.78
2022-12-13T06:00:31.986Z,-3.80
2022-12-13T06:03:01.725Z,-3.72
2022-12-13T06:05:31.295Z,-3.64
2022-12-13T06:07:59.545Z,-3.88
2022-12-13T06:10:35.042Z,-3.89
2022-12-13T06:13:22.117Z,-3.69
2022-12-13T06:16:01.972Z,-3.73
2022-12-13T06:18:34.490Z,-3.84
2022-12-13T06:21:07.336Z,-3.81
2022-12-13T06:23:36.167Z,-3.74
2022-12-13T06:26:07.588Z,-3.71
2022-12-13T06:28:36.441Z,-3.65
2022-12-13T06:31:05.538Z,-3.57
2022-12-13T06:33:39.153Z,-3.57
2022-12-13T06:36:09.024Z,-3.69
2022-12-13T06:38:43.503Z,-3.62
2022-12-13T06:41:16.939Z,-3.68
2022-12-13T06:43:47.847Z,-3.55
2022-12-13T06:46:16.936Z,-3.59
2022-12-13T06:48:45.202Z,-3.50
2022-12-13T06:51:13.188Z,-3.63
2022-12-13T06:53:51.804Z,-3.50
2022-12-13T06:56:20.578Z,-3.31
2022-12-13T06:58:48.600Z,-3.48
2022-12-13T07:01:24.261Z,-3.38
2022-12-13T07:03:56.724Z,-3.24
2022-12-13T07:06:26.400Z,-3.24
2022-12-13T07:08:58.301Z,-3.06
2022-12-13T07:11:33.347Z,-3.06
2022-12-13T07:14:02.113Z,-3.00
2022-12-13T07:16:30.121Z,-2.75
2022-12-13T07:19:01.876Z,-2.75
2022-12-13T07:21:32.334Z,-2.93
2022-12-13T07:24:02.228Z,-2.90
2022-12-13T07:26:30.099Z,-2.81
2022-12-13T07:28:57.959Z,-2.81
2022-12-13T07:31:26.864Z,-2.62
2022-12-13T07:33:56.480Z,-2.50
2022-12-13T07:36:24.873Z,-2.58
2022-12-13T07:38:57.435Z,-2.60
2022-12-13T07:41:27.736Z,-2.41
2022-12-13T07:43:57.381Z,-2.33
2022-12-13T07:46:32.525Z,-2.21
2022-12-13T07:49:05.123Z,-2.08
2022-12-13T07:51:35.755Z,-1.87
2022-12-13T07:54:06.262Z,-1.95
2022-12-13T07:56:36.484Z,-2.09
2022-12-13T07:59:05.577Z,-1.95
2022-12-13T08:01:35.495Z,-1.62
2022-12-13T08:04:05.551Z,-1.68
2022-12-13T08:06:39.572Z,-1.57
2022-12-13T08:09:08.237Z,-1.67
2022-12-13T08:11:37.020Z,-1.40
2022-12-13T08:14:07.362Z,-1.37
2022-12-13T08:16:37.022Z,-1.28
2022-12-13T08:19:06.599Z,-1.01
2022-12-13T08:22:01.796Z,-1.00
2022-12-13T08:24:31.876Z,-1.25
2022-12-13T08:27:03.440Z,-1.16
2022-12-13T08:29:36.477Z,-1.25
2022-12-13T08:32:10.774Z,-0.74
2022-12-13T08:34:41.465Z,-0.72
2022-12-13T08:37:09.712Z,-0.76
2022-12-13T08:39:39.368Z,-0.73
2022-12-13T08:42:19.427Z,-0.44
2022-12-13T08:44:52.324Z,-0.33
2022-12-13T08:47:26.881Z,-0.32
2022-12-13T08:50:01.933Z,-0.53
2022-12-13T08:52:40.606Z,-0.45
2022-12-13T08:55:15.725Z,-0.36
2022-12-13T08:57:45.664Z,-0.40
2022-12-13T09:00:20.023Z,-0.20
2022-12-13T09:02:49.594Z,0.06
2022-12-13T09:05:34.149Z,-0.26
2022-12-13T09:08:23.123Z,-0.25
2022-12-13T09:11:11.462Z,0.15
2022-12-13T09:13:52.875Z,0.10
2022-12-13T09:16:35.671Z,0.09
2022-12-13T09:19:25.467Z,0.18
2022-12-13T09:22:02.804Z,-0.06
2022-12-13T09:24:35.795Z,0.38
2022-12-13T09:27:09.601Z,0.85
2022-12-13T09:29:39.699Z,0.54
2022-12-13T09:32:09.234Z,0.21
2022-12-13T09:34:39.503Z,0.78
2022-12-13T09:37:09.252Z,0.87
2022-12-13T09:39:38.771Z,0.95
2022-12-13T09:42:23.026Z,1.28
2022-12-13T09:45:05.469Z,1.07
2022-12-13T09:47:47.535Z,1.51
2022-12-13T09:50:38.511Z,1.62
2022-12-13T09:53:12.050Z,1.59
2022-12-13T09:55:52.555Z,1.58
2022-12-13T09:58:31.904Z,1.69
2022-12-13T10:01:00.709Z,1.54
2022-12-13T10:03:30.021Z,1.33
2022-12-13T10:06:09.212Z,1.30
2022-12-13T10:08:57.695Z,1.33
2022-12-13T10:11:31.384Z,1.25
2022-12-13T10:14:36.667Z,1.16
2022-12-13T10:17:09.479Z,1.22
2022-12-13T10:19:46.732Z,1.41
2022-12-13T10:22:19.915Z,1.15
2022-12-13T10:25:06.114Z,1.53
2022-12-13T10:27:45.532Z,1.44
2022-12-13T10:30:29.006Z,1.58
2022-12-13T10:33:01.512Z,1.66
2022-12-13T10:35:38.165Z,1.68
2022-12-13T10:38:16.756Z,1.68
2022-12-13T10:40:46.727Z,1.68
2022-12-13T10:43:21.168Z,2.09
2022-12-13T10:46:04.179Z,1.87
2022-12-13T10:48:41.305Z,2.09
2022-12-13T10:51:18.721Z,1.98
2022-12-13T10:53:55.415Z,2.24
2022-12-13T10:56:37.712Z,2.15
2022-12-13T10:59:38.773Z,1.89
2022-12-13T11:02:37.794Z,1.92
2022-12-13T11:05:33.464Z,2.22
2022-12-13T11:08:27.057Z,2.23
2022-12-13T11:11:04.522Z,1.85
2022-12-13T11:13:57.141Z,1.84
2022-12-13T11:16:35.649Z,1.85
2022-12-13T11:19:18.820Z,2.09
2022-12-13T11:21:50.954Z,1.92
2022-12-13T11:24:36.148Z,1.93
2022-12-13T11:28:26.636Z,2.00
2022-12-13T11:31:07.981Z,2.11
2022-12-13T11:34:42.451Z,2.22
2022-12-13T11:38:11.253Z,1.98
2022-12-13T11:40:46.740Z,2.11
2022-12-13T11:43:42.690Z,2.33
2022-12-13T11:46:20.993Z,2.51
2022-12-13T11:49:20.755Z,2.11
2022-12-13T11:52:00.177Z,2.19
2022-12-13T11:55:20.553Z,2.14
2022-12-13T11:58:16.651Z,2.15
2022-12-13T12:01:07.034Z,2.11
2022-12-13T12:03:48.330Z,2.24
2022-12-13T12:06:43.855Z,2.01
2022-12-13T12:09:19.456Z,2.14
2022-12-13T12:12:11.928Z,2.32
2022-12-13T12:15:05.185Z,2.48
2022-12-13T12:17:44.927Z,2.06
2022-12-13T12:20:40.688Z,2.16
2022-12-13T12:23:44.381Z,2.29
2022-12-13T12:26:18.718Z,2.28
2022-12-13T12:29:26.124Z,2.09
2022-12-13T12:32:20.558Z,2.20
2022-12-13T12:35:34.194Z,2.39
2022-12-13T12:38:44.657Z,2.31
2022-12-13T12:41:53.081Z,2.19
2022-12-13T12:44:34.124Z,2.16
2022-12-13T12:50:48.838Z,2.07
2022-12-13T12:54:08.449Z,2.23
2022-12-13T12:57:17.300Z,1.92
2022-12-13T13:00:21.916Z,1.76
2022-12-13T13:03:12.075Z,2.07
2022-12-13T13:06:06.899Z,2.35
2022-12-13T13:08:56.829Z,2.31
2022-12-13T13:11:31.413Z,2.17
2022-12-13T13:14:03.034Z,2.00
2022-12-13T13:16:39.626Z,2.30
2022-12-13T13:19:17.452Z,1.95
2022-12-13T13:22:01.671Z,1.86
2022-12-13T13:24:34.832Z,1.80
2022-12-13T13:27:10.376Z,1.95
2022-12-13T13:29:43.471Z,2.28
2022-12-13T13:32:28.326Z,2.21
2022-12-13T13:35:43.007Z,2.07
2022-12-13T13:38:49.934Z,1.84
2022-12-13T13:41:56.774Z,1.82
2022-12-13T13:44:45.848Z,1.66
2022-12-13T13:47:41.302Z,1.82
2022-12-13T13:50:08.992Z,1.58
2022-12-13T13:53:29.583Z,1.44
2022-12-13T13:56:32.628Z,1.26
2022-12-13T13:59:54.323Z,1.36
2022-12-13T14:03:33.171Z,1.25
2022-12-13T14:07:00.736Z,1.17
2022-12-13T14:10:19.532Z,1.18
2022-12-13T14:13:46.698Z,1.10
2022-12-13T14:16:48.694Z,0.70
2022-12-13T14:20:22.003Z,0.70
2022-12-13T14:23:21.888Z,0.68
2022-12-13T14:26:44.261Z,0.37
2022-12-13T14:29:32.176Z,0.29
2022-12-13T14:32:01.371Z,0.21
2022-12-13T14:34:34.551Z,0.28
2022-12-13T14:37:24.009Z,0.13
2022-12-13T14:39:52.834Z,-0.01
2022-12-13T14:42:34.354Z,0.03
2022-12-13T14:45:37.457Z,-0.05
2022-12-13T14:48:28.075Z,-0.06
2022-12-13T14:50:58.580Z,-0.20
2022-12-13T14:53:43.015Z,-0.30
2022-12-13T14:56:28.398Z,-0.38
2022-12-13T14:59:01.589Z,-0.47
2022-12-13T15:01:40.642Z,-0.44
2022-12-13T15:04:35.061Z,-0.40
2022-12-13T15:07:28.606Z,-0.59
2022-12-13T15:10:19.156Z,-0.70
2022-12-13T15:12:49.390Z,-0.62
2022-12-13T15:15:36.609Z,-0.42
2022-12-13T15:18:13.138Z,-0.80
2022-12-13T15:20:43.127Z,-1.15
2022-12-13T15:23:21.476Z,-1.43
2022-12-13T15:26:28.436Z,-1.42
2022-12-13T15:29:10.325Z,-1.31
2022-12-13T15:31:40.878Z,-1.31
2022-12-13T15:34:30.615Z,-1.52
2022-12-13T15:37:03.714Z,-1.55
2022-12-13T15:39:41.677Z,-1.63
2022-12-13T15:42:33.999Z,-1.23
2022-12-13T15:45:16.152Z,-1.14
2022-12-13T15:47:47.135Z,-1.57
2022-12-13T15:50:50.959Z,-1.52
2022-12-13T15:53:29.555Z,-1.63
2022-12-13T15:56:01.189Z,-1.40
2022-12-13T15:58:37.329Z,-1.27
2022-12-13T16:01:06.997Z,-1.81
2022-12-13T16:03:46.945Z,-2.01
2022-12-13T16:06:22.885Z,-2.05
2022-12-13T16:09:01.124Z,-2.15
2022-12-13T16:12:01.339Z,-2.10
2022-12-13T16:14:49.685Z,-2.27
2022-12-13T16:17:32.074Z,-2.14
2022-12-13T16:20:07.873Z,-1.75
2022-12-13T16:22:39.193Z,-1.72
2022-12-13T16:25:19.025Z,-2.02
2022-12-13T16:27:49.283Z,-2.41
2022-12-13T16:31:35.922Z,-2.41
2022-12-13T16:34:07.214Z,-2.53
2022-12-13T16:36:37.282Z,-2.60
2022-12-13T16:39:11.219Z,-2.71
2022-12-13T16:41:46.179Z,-2.70
2022-12-13T16:44:37.580Z,-2.61
2022-12-13T16:47:22.329Z,-2.71
2022-12-13T16:49:54.145Z,-2.63
2022-12-13T16:52:23.983Z,-2.33
2022-12-13T16:54:53.754Z,-2.33
2022-12-13T16:57:23.500Z,-2.54
2022-12-13T16:59:53.819Z,-2.61
2022-12-13T17:02:23.673Z,-2.69
2022-12-13T17:04:53.212Z,-2.86
2022-12-13T17:07:22.878Z,-2.67
2022-12-13T17:09:52.446Z,-2.72
2022-12-13T17:12:24.882Z,-2.84
2022-12-13T17:14:55.195Z,-2.79
2022-12-13T17:17:24.811Z,-2.83
2022-12-13T17:19:54.753Z,-2.77
2022-12-13T17:22:25.059Z,-3.18
2022-12-13T17:24:54.889Z,-3.14
2022-12-13T17:27:24.507Z,-3.07
2022-12-13T17:29:54.172Z,-3.25
2022-12-13T17:32:25.439Z,-3.28
2022-12-13T17:34:56.081Z,-3.18
2022-12-13T17:37:25.733Z,-3.23
2022-12-13T17:39:55.313Z,-3.30
2022-12-13T17:42:25.990Z,-3.16
2022-12-13T17:44:55.701Z,-3.32
2022-12-13T17:47:26.761Z,-3.28
2022-12-13T17:49:57.317Z,-3.27
2022-12-13T17:52:26.979Z,-3.39
2022-12-13T17:54:56.787Z,-3.46
2022-12-13T17:57:27.270Z,-3.23
2022-12-13T17:59:57.843Z,-3.26
2022-12-13T18:02:27.708Z,-2.97
2022-12-13T18:04:57.438Z,-3.17
2022-12-13T18:07:27.098Z,-3.34
2022-12-13T18:09:56.830Z,-3.79
2022-12-13T18:12:27.426Z,-3.92
2022-12-13T18:14:57.896Z,-3.78
2022-12-13T18:17:46.555Z,-3.94
2022-12-13T18:20:19.290Z,-3.95
2022-12-13T18:22:51.565Z,-4.07
2022-12-13T18:25:21.416Z,-3.87
2022-12-13T18:27:53.832Z,-3.84
2022-12-13T18:30:28.261Z,-3.64
2022-12-13T18:32:59.545Z,-3.58
2022-12-13T18:35:30.198Z,-3.62
2022-12-13T18:37:59.786Z,-3.88
2022-12-13T18:40:29.323Z,-4.04
2022-12-13T18:42:58.147Z,-3.86
2022-12-13T18:45:26.011Z,-3.89
2022-12-13T18:47:55.479Z,-4.03
2022-12-13T18:50:25.602Z,-4.17
2022-12-13T18:52:55.150Z,-4.17
2022-12-13T18:55:25.216Z,-4.39
2022-12-13T18:57:56.290Z,-4.26
2022-12-13T19:00:27.062Z,-4.05
2022-12-13T19:02:57.176Z,-4.34
2022-12-13T19:05:27.065Z,-4.52
2022-12-13T19:07:56.784Z,-4.23
2022-12-13T19:10:26.825Z,-4.13
2022-12-13T19:12:56.565Z,-4.20
2022-12-13T19:15:26.344Z,-4.29
2022-12-13T19:17:56.081Z,-4.32
2022-12-13T19:20:25.952Z,-4.36
2022-12-13T19:22:55.733Z,-4.48
2022-12-13T19:25:25.482Z,-4.56
2022-12-13T19:27:56.915Z,-4.53
2022-12-13T19:30:26.903Z,-4.39
2022-12-13T19:32:57.367Z,-4.24
2022-12-13T19:35:27.908Z,-4.25
2022-12-13T19:37:58.439Z,-4.48
2022-12-13T19:40:28.606Z,-4.80
2022-12-13T19:42:59.110Z,-4.64
2022-12-13T19:45:29.583Z,-4.73
2022-12-13T19:47:59.318Z,-4.90
2022-12-13T19:50:30.883Z,-4.96
2022-12-13T19:53:00.624Z,-4.69
2022-12-13T19:55:31.133Z,-4.92
2022-12-13T19:58:01.925Z,-4.91
2022-12-13T20:00:31.633Z,-5.10
2022-12-13T20:03:01.377Z,-5.18
2022-12-13T20:05:31.148Z,-4.81
2022-12-13T20:08:01.744Z,-4.83
2022-12-13T20:10:35.249Z,-5.23
2022-12-13T20:13:06.187Z,-5.34
2022-12-13T20:15:36.695Z,-5.41
2022-12-13T20:18:06.562Z,-5.26
2022-12-13T20:21:02.424Z,-5.36
2022-12-13T20:23:27.104Z,-5.39
2022-12-13T20:26:08.013Z,-4.99
2022-12-13T20:28:38.575Z,-4.91
2022-12-13T20:31:14.683Z,-5.14
2022-12-13T20:33:44.560Z,-5.10
2022-12-13T20:36:24.813Z,-5.46
2022-12-13T20:39:01.833Z,-5.35
2022-12-13T20:41:34.725Z,-5.38
2022-12-13T20:44:10.748Z,-5.26
2022-12-13T20:46:40.937Z,-5.46
2022-12-13T20:49:10.847Z,-5.64
2022-12-13T20:51:42.194Z,-5.44
2022-12-13T20:54:11.851Z,-5.45
2022-12-13T20:56:41.818Z,-5.43
2022-12-13T20:59:14.743Z,-5.52
2022-12-13T21:01:48.834Z,-5.27
2022-12-13T21:04:19.148Z,-5.13
2022-12-13T21:06:49.002Z,-5.19
2022-12-13T21:09:18.736Z,-5.39
2022-12-13T21:11:50.366Z,-5.51
2022-12-13T21:14:28.562Z,-5.59
2022-12-13T21:17:09.743Z,-5.62
2022-12-13T21:19:41.061Z,-5.61
2022-12-13T21:22:10.764Z,-5.66
2022-12-13T21:24:40.553Z,-5.66
2022-12-13T21:27:10.201Z,-5.68
2022-12-13T21:29:38.827Z,-5.51
2022-12-13T21:32:08.647Z,-5.80
2022-12-13T21:34:38.255Z,-5.77
2022-12-13T21:37:06.998Z,-5.73
2022-12-13T21:39:36.672Z,-5.80
2022-12-13T21:42:06.222Z,-6.23
2022-12-13T21:44:34.972Z,-6.10
2022-12-13T21:47:13.101Z,-5.96
2022-12-13T21:49:48.540Z,-6.48
2022-12-13T21:52:18.612Z,-6.51
2022-12-13T21:54:47.386Z,-6.44
2022-12-13T21:57:35.513Z,-6.13
2022-12-13T22:00:06.442Z,-6.59
2022-12-13T22:02:36.117Z,-6.03
2022-12-13T22:05:06.887Z,-6.17
2022-12-13T22:07:35.611Z,-6.56
2022-12-13T22:10:05.938Z,-6.36
2022-12-13T22:12:40.888Z,-6.44
2022-12-13T22:15:15.644Z,-6.01
2022-12-13T22:17:45.452Z,-5.92
2022-12-13T22:20:15.923Z,-5.79
2022-12-13T22:22:48.652Z,-5.66
2022-12-13T22:25:18.987Z,-5.91
2022-12-13T22:27:47.753Z,-5.61
2022-12-13T22:30:17.452Z,-5.32
2022-12-13T22:32:47.137Z,-5.67
2022-12-13T22:35:16.900Z,-5.72
2022-12-13T22:37:50.122Z,-5.40
2022-12-13T22:40:19.707Z,-5.49
2022-12-13T22:42:49.286Z,-5.11
2022-12-13T22:45:18.916Z,-5.15
2022-12-13T22:47:47.491Z,-5.26
2022-12-13T22:50:20.258Z,-5.17
2022-12-13T22:52:49.789Z,-5.02
2022-12-13T22:55:18.510Z,-4.90
2022-12-13T22:57:48.522Z,-5.20
2022-12-13T23:00:18.717Z,-5.17
2022-12-13T23:02:48.592Z,-5.08
2022-12-13T23:05:17.579Z,-5.00
2022-12-13T23:07:48.570Z,-4.95
2022-12-13T23:10:36.042Z,-5.09
2022-12-13T23:13:04.789Z,-5.29
2022-12-13T23:15:38.872Z,-5.23
2022-12-13T23:18:08.417Z,-5.20
2022-12-13T23:20:38.009Z,-5.05
2022-12-13T23:23:07.604Z,-4.82
2022-12-13T23:25:36.181Z,-5.04
2022-12-13T23:28:05.448Z,-4.92
2022-12-13T23:30:37.319Z,-4.82
2022-12-13T23:33:06.107Z,-4.81
2022-12-13T23:35:35.754Z,-4.55
2022-12-13T23:38:05.285Z,-4.47
2022-12-13T23:40:33.999Z,-4.31
2022-12-13T23:43:02.567Z,-4.36
2022-12-13T23:45:31.238Z,-4.69
2022-12-13T23:48:00.801Z,-4.57
2022-12-13T23:50:30.671Z,-4.83
2022-12-13T23:53:00.159Z,-4.58
2022-12-13T23:55:29.658Z,-4.36
2022-12-13T23:57:58.202Z,-4.34
